createdAt,value
2023-09-08T00:01:11.990Z,16.86
2023-09-08T00:03:39.739Z,16.83
2023-09-08T00:06:07.380Z,16.73
2023-09-08T00:08:35.206Z,16.79
2023-09-08T00:11:03.062Z,16.71
2023-09-08T00:13:30.714Z,16.68
2023-09-08T00:15:59.810Z,16.69
2023-09-08T00:18:27.624Z,16.63
2023-09-08T00:20:55.435Z,16.59
2023-09-08T00:23:23.081Z,16.58
2023-09-08T00:25:51.464Z,16.56
2023-09-08T00:28:19.123Z,16.53
2023-09-08T00:30:46.780Z,16.52
2023-09-08T00:33:15.880Z,16.43
2023-09-08T00:35:46.642Z,16.38
2023-09-08T00:38:14.292Z,16.34
2023-09-08T00:40:42.020Z,16.34
2023-09-08T00:43:10.792Z,16.31
2023-09-08T00:45:42.340Z,16.25
2023-09-08T00:48:11.397Z,16.31
2023-09-08T00:50:40.501Z,16.32
2023-09-08T00:53:09.793Z,16.28
2023-09-08T00:55:37.755Z,16.26
2023-09-08T00:58:05.662Z,16.21
2023-09-08T01:00:33.987Z,16.20
2023-09-08T01:03:01.952Z,16.07
2023-09-08T01:05:29.696Z,16.05
2023-09-08T01:07:59.234Z,16.05
2023-09-08T01:10:27.065Z,16.29
2023-09-08T01:12:55.520Z,16.18
2023-09-08T01:15:23.313Z,16.11
2023-09-08T01:17:51.219Z,16.01
2023-09-08T01:20:23.313Z,15.94
2023-09-08T01:23:05.555Z,16.00
2023-09-08T01:25:37.667Z,15.97
2023-09-08T01:28:07.132Z,15.94
2023-09-08T01:30:35.793Z,15.94
2023-09-08T01:33:06.825Z,15.89
2023-09-08T01:35:34.626Z,15.89
2023-09-08T01:38:02.519Z,15.91
2023-09-08T01:40:30.219Z,15.79
2023-09-08T01:42:59.410Z,15.75
2023-09-08T01:45:27.270Z,15.76
2023-09-08T01:47:55.057Z,15.73
2023-09-08T01:50:25.390Z,15.66
2023-09-08T01:52:53.267Z,15.61
2023-09-08T01:55:21.697Z,15.56
2023-09-08T01:57:49.444Z,15.66
2023-09-08T02:00:20.124Z,15.60
2023-09-08T02:02:47.744Z,15.47
2023-09-08T02:05:16.761Z,15.49
2023-09-08T02:07:44.550Z,15.44
2023-09-08T02:10:12.493Z,15.42
2023-09-08T02:12:40.515Z,15.42
2023-09-08T02:15:10.163Z,15.43
2023-09-08T02:17:39.408Z,15.39
2023-09-08T02:20:08.651Z,15.37
2023-09-08T02:22:36.330Z,15.42
2023-09-08T02:25:04.292Z,15.40
2023-09-08T02:27:31.970Z,15.39
2023-09-08T02:29:59.830Z,15.35
2023-09-08T02:32:29.622Z,15.34
2023-09-08T02:34:58.813Z,15.31
2023-09-08T02:37:26.408Z,15.29
2023-09-08T02:39:54.056Z,15.25
2023-09-08T02:42:21.721Z,15.20
2023-09-08T02:44:49.359Z,15.18
2023-09-08T02:47:17.348Z,15.15
2023-09-08T02:49:45.821Z,15.12
2023-09-08T02:52:14.820Z,15.09
2023-09-08T02:54:42.679Z,15.10
2023-09-08T02:57:10.588Z,15.10
2023-09-08T02:59:38.528Z,15.07
2023-09-08T03:02:06.760Z,15.06
2023-09-08T03:04:34.661Z,15.05
2023-09-08T03:07:02.744Z,15.03
2023-09-08T03:09:31.878Z,14.99
2023-09-08T03:11:59.884Z,14.97
2023-09-08T03:14:27.586Z,14.87
2023-09-08T03:16:57.230Z,14.81
2023-09-08T03:19:26.267Z,14.86
2023-09-08T03:21:54.027Z,14.83
2023-09-08T03:24:21.662Z,14.84
2023-09-08T03:26:50.690Z,14.80
2023-09-08T03:29:18.561Z,14.76
2023-09-08T03:31:46.325Z,14.74
2023-09-08T03:34:14.551Z,14.67
2023-09-08T03:36:42.523Z,14.63
2023-09-08T03:39:10.770Z,14.61
2023-09-08T03:41:39.345Z,14.60
2023-09-08T03:44:08.453Z,14.66
2023-09-08T03:46:36.195Z,14.63
2023-09-08T03:49:04.140Z,14.58
2023-09-08T03:51:31.816Z,14.62
2023-09-08T03:53:59.601Z,14.50
2023-09-08T03:56:27.373Z,14.51
2023-09-08T03:58:55.101Z,14.50
2023-09-08T04:01:24.642Z,14.47
2023-09-08T04:03:52.581Z,14.47
2023-09-08T04:06:20.837Z,14.48
2023-09-08T04:08:49.848Z,14.49
2023-09-08T04:11:17.495Z,14.50
2023-09-08T04:13:45.154Z,14.43
2023-09-08T04:16:12.993Z,14.40
2023-09-08T04:18:42.346Z,14.36
2023-09-08T04:21:10.606Z,14.32
2023-09-08T04:23:38.479Z,14.27
2023-09-08T04:26:06.119Z,14.26
2023-09-08T04:28:33.741Z,14.23
2023-09-08T04:31:01.397Z,14.23
2023-09-08T04:33:30.426Z,14.16
2023-09-08T04:35:59.509Z,14.24
2023-09-08T04:38:27.181Z,14.28
2023-09-08T04:40:54.989Z,14.43
2023-09-08T04:43:22.716Z,14.37
2023-09-08T04:45:51.708Z,14.32
2023-09-08T04:48:19.432Z,14.33
2023-09-08T04:50:47.180Z,14.31
2023-09-08T04:53:16.364Z,14.27
2023-09-08T04:55:44.362Z,14.24
2023-09-08T04:58:12.125Z,14.23
2023-09-08T05:00:40.885Z,14.24
2023-09-08T05:03:09.444Z,14.25
2023-09-08T05:05:37.867Z,14.27
2023-09-08T05:08:06.189Z,14.29
2023-09-08T05:10:35.564Z,14.37
2023-09-08T05:13:03.611Z,14.32
2023-09-08T05:15:35.426Z,14.30
2023-09-08T05:18:04.293Z,14.34
2023-09-08T05:20:32.572Z,14.37
2023-09-08T05:23:01.664Z,14.39
2023-09-08T05:25:29.448Z,14.44
2023-09-08T05:27:58.614Z,14.45
2023-09-08T05:30:26.170Z,14.46
2023-09-08T05:32:55.367Z,14.46
2023-09-08T05:35:23.154Z,14.55
2023-09-08T05:37:50.842Z,14.59
2023-09-08T05:40:19.829Z,14.61
2023-09-08T05:42:47.562Z,14.63
2023-09-08T05:45:16.579Z,14.73
2023-09-08T05:47:44.796Z,14.73
2023-09-08T05:50:13.138Z,14.74
2023-09-08T05:52:40.881Z,14.79
2023-09-08T05:55:09.196Z,14.78
2023-09-08T05:57:38.030Z,14.84
2023-09-08T06:00:06.583Z,14.89
2023-09-08T06:02:42.256Z,14.93
2023-09-08T06:05:14.270Z,14.90
2023-09-08T06:07:50.918Z,14.96
2023-09-08T06:10:25.541Z,15.01
2023-09-08T06:12:53.354Z,15.05
2023-09-08T06:15:21.316Z,15.11
2023-09-08T06:17:51.424Z,15.21
2023-09-08T06:20:19.002Z,15.24
2023-09-08T06:22:46.923Z,15.35
2023-09-08T06:25:14.839Z,15.39
2023-09-08T06:27:42.873Z,15.47
2023-09-08T06:30:11.717Z,15.58
2023-09-08T06:32:40.041Z,15.63
2023-09-08T06:35:10.054Z,15.74
2023-09-08T06:37:38.483Z,15.82
2023-09-08T06:40:08.623Z,15.94
2023-09-08T06:42:36.589Z,15.99
2023-09-08T06:45:14.563Z,16.11
2023-09-08T06:47:42.412Z,16.14
2023-09-08T06:50:11.979Z,16.24
2023-09-08T06:52:39.670Z,16.33
2023-09-08T06:55:07.765Z,16.47
2023-09-08T06:57:36.104Z,16.54
2023-09-08T07:00:07.005Z,16.62
2023-09-08T07:02:35.068Z,16.74
2023-09-08T07:05:07.609Z,16.86
2023-09-08T07:07:37.050Z,17.03
2023-09-08T07:10:06.410Z,17.13
2023-09-08T07:12:34.201Z,17.23
2023-09-08T07:15:01.906Z,17.33
2023-09-08T07:17:29.667Z,17.46
2023-09-08T07:19:57.484Z,17.57
2023-09-08T07:22:25.619Z,17.66
2023-09-08T07:24:55.102Z,17.71
2023-09-08T07:27:23.625Z,17.82
2023-09-08T07:29:51.489Z,17.93
2023-09-08T07:32:20.190Z,17.99
2023-09-08T07:34:53.366Z,18.13
2023-09-08T07:37:21.408Z,18.21
2023-09-08T07:39:49.061Z,18.29
2023-09-08T07:42:18.497Z,18.44
2023-09-08T07:44:47.160Z,18.55
2023-09-08T07:47:14.814Z,18.66
2023-09-08T07:49:47.246Z,18.77
2023-09-08T07:52:14.871Z,18.86
2023-09-08T07:54:42.513Z,18.95
2023-09-08T07:57:10.435Z,19.03
2023-09-08T07:59:39.773Z,19.20
2023-09-08T08:02:07.438Z,19.29
2023-09-08T08:04:35.120Z,19.40
2023-09-08T08:07:03.448Z,19.47
2023-09-08T08:09:31.084Z,19.52
2023-09-08T08:11:58.815Z,19.60
2023-09-08T08:14:26.460Z,19.70
2023-09-08T08:16:55.428Z,19.80
2023-09-08T08:19:25.390Z,19.84
2023-09-08T08:21:54.959Z,19.98
2023-09-08T08:24:22.669Z,20.10
2023-09-08T08:26:53.011Z,20.26
2023-09-08T08:29:20.851Z,20.27
2023-09-08T08:31:48.534Z,20.31
2023-09-08T08:34:17.524Z,20.39
2023-09-08T08:36:45.206Z,20.59
2023-09-08T08:39:12.926Z,20.65
2023-09-08T08:41:42.210Z,20.81
2023-09-08T08:44:10.163Z,20.77
2023-09-08T08:46:39.626Z,20.88
2023-09-08T08:49:09.719Z,21.01
2023-09-08T08:51:40.320Z,21.17
2023-09-08T08:54:08.711Z,21.21
2023-09-08T08:56:38.002Z,21.25
2023-09-08T08:59:06.084Z,21.32
2023-09-08T09:01:34.455Z,21.41
2023-09-08T09:04:03.026Z,21.58
2023-09-08T09:06:30.965Z,21.69
2023-09-08T09:09:01.920Z,21.79
2023-09-08T09:11:29.632Z,21.89
2023-09-08T09:13:57.529Z,21.90
2023-09-08T09:16:25.361Z,22.00
2023-09-08T09:18:57.608Z,22.04
2023-09-08T09:21:26.221Z,22.13
2023-09-08T09:23:55.487Z,22.29
2023-09-08T09:26:28.336Z,22.33
2023-09-08T09:28:56.202Z,22.39
2023-09-08T09:31:27.449Z,22.52
2023-09-08T09:34:06.536Z,22.48
2023-09-08T09:36:34.437Z,22.53
2023-09-08T09:39:02.825Z,22.76
2023-09-08T09:41:32.131Z,22.82
2023-09-08T09:44:00.303Z,22.93
2023-09-08T09:46:30.445Z,22.96
2023-09-08T09:48:58.676Z,23.13
2023-09-08T09:51:26.334Z,23.22
2023-09-08T09:53:55.421Z,23.28
2023-09-08T09:56:24.548Z,23.43
2023-09-08T09:58:55.286Z,23.48
2023-09-08T10:01:26.748Z,23.59
2023-09-08T10:03:56.181Z,23.63
2023-09-08T10:06:24.449Z,23.82
2023-09-08T10:08:53.400Z,23.99
2023-09-08T10:11:24.047Z,24.05
2023-09-08T10:13:59.692Z,24.25
2023-09-08T10:16:29.650Z,24.34
2023-09-08T10:19:00.592Z,24.47
2023-09-08T10:21:31.366Z,24.63
2023-09-08T10:24:09.464Z,24.70
2023-09-08T10:26:39.478Z,24.79
2023-09-08T10:29:09.288Z,24.99
2023-09-08T10:31:37.901Z,25.46
2023-09-08T10:34:05.771Z,25.49
2023-09-08T10:36:35.627Z,25.52
2023-09-08T10:39:30.411Z,25.64
2023-09-08T10:42:21.668Z,26.06
2023-09-08T10:45:05.063Z,26.15
2023-09-08T10:47:36.248Z,26.44
2023-09-08T10:50:06.229Z,26.60
2023-09-08T10:52:36.304Z,26.86
2023-09-08T10:55:06.235Z,26.99
2023-09-08T10:57:35.490Z,27.09
2023-09-08T11:00:12.871Z,27.64
2023-09-08T11:02:42.388Z,27.70
2023-09-08T11:05:12.179Z,27.76
2023-09-08T11:07:40.234Z,28.44
2023-09-08T11:10:09.470Z,29.05
2023-09-08T11:12:37.306Z,29.29
2023-09-08T11:15:09.578Z,29.79
2023-09-08T11:17:40.693Z,30.00
2023-09-08T11:20:10.995Z,30.46
2023-09-08T11:22:40.232Z,31.01
2023-09-08T11:25:09.873Z,31.24
2023-09-08T11:27:37.548Z,31.44
2023-09-08T11:30:08.129Z,32.00
2023-09-08T11:32:37.175Z,32.59
2023-09-08T11:35:08.012Z,32.81
2023-09-08T11:37:40.444Z,32.46
2023-09-08T11:40:13.212Z,32.58
2023-09-08T11:42:44.939Z,33.22
2023-09-08T11:45:15.422Z,33.01
2023-09-08T11:47:44.600Z,33.01
2023-09-08T11:50:16.462Z,32.43
2023-09-08T11:52:45.891Z,33.41
2023-09-08T11:55:13.966Z,33.86
2023-09-08T11:57:42.277Z,33.74
2023-09-08T12:00:15.553Z,33.48
2023-09-08T12:02:44.698Z,33.65
2023-09-08T12:05:16.008Z,33.74
2023-09-08T12:07:43.654Z,33.49
2023-09-08T12:10:13.878Z,33.72
2023-09-08T12:12:46.158Z,34.38
2023-09-08T12:15:14.032Z,34.78
2023-09-08T12:17:52.191Z,34.75
2023-09-08T12:20:20.721Z,35.66
2023-09-08T12:22:51.948Z,35.21
2023-09-08T12:25:19.959Z,34.32
2023-09-08T12:27:51.595Z,34.60
2023-09-08T12:30:20.626Z,34.39
2023-09-08T12:32:50.703Z,35.49
2023-09-08T12:35:24.757Z,35.98
2023-09-08T12:37:58.903Z,36.51
2023-09-08T12:40:27.002Z,36.48
2023-09-08T12:42:56.040Z,35.97
2023-09-08T12:45:33.369Z,35.87
2023-09-08T12:48:03.566Z,35.95
2023-09-08T12:50:32.866Z,36.90
2023-09-08T12:53:00.482Z,36.93
2023-09-08T12:55:28.011Z,36.53
2023-09-08T12:57:56.462Z,36.56
2023-09-08T13:00:24.901Z,35.95
2023-09-08T13:02:53.188Z,36.84
2023-09-08T13:05:21.105Z,36.87
2023-09-08T13:07:50.170Z,37.39
2023-09-08T13:10:17.941Z,36.92
2023-09-08T13:12:45.661Z,36.89
2023-09-08T13:15:13.517Z,36.45
2023-09-08T13:17:41.278Z,36.99
2023-09-08T13:20:10.163Z,36.74
2023-09-08T13:22:37.824Z,36.98
2023-09-08T13:25:08.017Z,36.72
2023-09-08T13:27:35.669Z,36.92
2023-09-08T13:30:10.974Z,37.40
2023-09-08T13:32:38.883Z,37.17
2023-09-08T13:35:07.399Z,36.91
2023-09-08T13:37:36.340Z,36.99
2023-09-08T13:40:05.064Z,36.15
2023-09-08T13:42:34.587Z,36.25
2023-09-08T13:45:02.525Z,35.93
2023-09-08T13:47:30.743Z,36.93
2023-09-08T13:49:59.360Z,37.35
2023-09-08T13:52:31.945Z,37.62
2023-09-08T13:55:24.591Z,37.59
2023-09-08T13:57:50.280Z,37.31
2023-09-08T14:00:22.763Z,37.21
2023-09-08T14:02:52.188Z,37.41
2023-09-08T14:05:28.381Z,36.90
2023-09-08T14:08:06.114Z,36.98
2023-09-08T14:13:08.432Z,36.80
2023-09-08T14:15:36.143Z,37.22
2023-09-08T14:18:03.643Z,36.96
2023-09-08T14:20:31.268Z,37.43
2023-09-08T14:22:58.774Z,37.12
2023-09-08T14:25:26.395Z,36.91
2023-09-08T14:27:54.246Z,36.91
2023-09-08T14:30:23.218Z,36.87
2023-09-08T14:32:50.861Z,36.96
2023-09-08T14:35:18.481Z,36.40
2023-09-08T14:37:48.529Z,36.68
2023-09-08T14:40:16.835Z,36.89
2023-09-08T14:42:44.601Z,37.46
2023-09-08T14:45:13.401Z,36.67
2023-09-08T14:47:42.414Z,36.66
2023-09-08T14:50:10.535Z,36.60
2023-09-08T14:52:38.168Z,36.50
2023-09-08T14:55:06.442Z,36.52
2023-09-08T14:57:34.102Z,36.33
2023-09-08T15:00:01.625Z,35.99
2023-09-08T15:02:29.238Z,35.94
2023-09-08T15:04:58.222Z,35.55
2023-09-08T15:07:25.929Z,35.62
2023-09-08T15:09:53.499Z,35.43
2023-09-08T15:12:21.192Z,35.22
2023-09-08T15:14:49.039Z,34.76
2023-09-08T15:17:17.350Z,34.62
2023-09-08T15:19:45.019Z,35.00
2023-09-08T15:22:14.633Z,34.98
2023-09-08T15:24:42.279Z,35.66
2023-09-08T15:27:09.914Z,35.66
2023-09-08T15:29:37.542Z,35.32
2023-09-08T15:32:07.003Z,35.23
2023-09-08T15:34:34.636Z,34.32
2023-09-08T15:37:02.274Z,34.55
2023-09-08T15:39:31.397Z,34.16
2023-09-08T15:41:59.095Z,34.32
2023-09-08T15:44:26.707Z,33.92
2023-09-08T15:46:54.330Z,34.07
2023-09-08T15:49:23.246Z,33.64
2023-09-08T15:51:57.283Z,33.64
2023-09-08T15:54:33.727Z,33.65
2023-09-08T15:57:01.396Z,33.56
2023-09-08T15:59:29.322Z,33.46
2023-09-08T16:01:57.046Z,33.45
2023-09-08T16:04:24.910Z,33.41
2023-09-08T16:06:52.656Z,33.24
2023-09-08T16:09:20.488Z,33.26
2023-09-08T16:11:49.451Z,32.79
2023-09-08T16:14:17.100Z,32.51
2023-09-08T16:16:45.108Z,32.14
2023-09-08T16:19:12.789Z,31.87
2023-09-08T16:21:40.427Z,31.58
2023-09-08T16:24:08.412Z,31.12
2023-09-08T16:26:36.058Z,30.68
2023-09-08T16:29:05.111Z,30.27
2023-09-08T16:31:32.785Z,30.08
2023-09-08T16:34:00.570Z,29.65
2023-09-08T16:36:28.255Z,29.29
2023-09-08T16:38:55.916Z,29.27
2023-09-08T16:41:23.639Z,29.02
2023-09-08T16:43:51.265Z,28.88
2023-09-08T16:46:21.343Z,28.91
2023-09-08T16:48:49.872Z,28.78
2023-09-08T16:51:17.367Z,28.60
2023-09-08T16:53:45.011Z,28.47
2023-09-08T16:56:12.598Z,28.44
2023-09-08T16:58:40.197Z,28.32
2023-09-08T17:01:07.807Z,28.04
2023-09-08T17:03:37.067Z,27.94
2023-09-08T17:06:05.192Z,27.95
2023-09-08T17:08:32.917Z,27.85
2023-09-08T17:11:05.400Z,27.68
2023-09-08T17:13:34.348Z,27.60
2023-09-08T17:16:02.358Z,27.49
2023-09-08T17:18:30.213Z,27.37
2023-09-08T17:20:59.342Z,27.27
2023-09-08T17:23:27.099Z,26.97
2023-09-08T17:25:54.754Z,26.89
2023-09-08T17:28:22.380Z,26.75
2023-09-08T17:30:50.158Z,26.46
2023-09-08T17:33:20.011Z,26.37
2023-09-08T17:35:49.105Z,26.24
2023-09-08T17:38:18.183Z,26.15
2023-09-08T17:40:46.577Z,26.04
2023-09-08T17:43:14.243Z,26.04
2023-09-08T17:45:41.971Z,25.88
2023-09-08T17:48:09.820Z,25.71
2023-09-08T17:50:37.516Z,25.59
2023-09-08T17:53:05.469Z,25.49
2023-09-08T17:55:34.457Z,25.35
2023-09-08T17:58:02.049Z,25.39
2023-09-08T18:00:29.738Z,25.20
2023-09-08T18:02:57.432Z,25.15
2023-09-08T18:05:26.160Z,25.07
2023-09-08T18:07:53.788Z,25.00
2023-09-08T18:10:21.635Z,25.08
2023-09-08T18:12:50.645Z,24.85
2023-09-08T18:15:18.343Z,24.79
2023-09-08T18:17:48.226Z,24.75
2023-09-08T18:20:15.989Z,24.92
2023-09-08T18:22:43.658Z,24.83
2023-09-08T18:25:11.367Z,24.54
2023-09-08T18:27:39.339Z,24.47
2023-09-08T18:30:09.625Z,24.44
2023-09-08T18:32:37.814Z,24.35
2023-09-08T18:35:06.341Z,24.28
2023-09-08T18:37:34.025Z,24.21
2023-09-08T18:40:01.657Z,24.25
2023-09-08T18:42:29.441Z,23.97
2023-09-08T18:44:57.082Z,23.95
2023-09-08T18:47:26.079Z,23.85
2023-09-08T18:49:53.716Z,23.78
2023-09-08T18:52:21.344Z,23.56
2023-09-08T18:54:48.990Z,23.52
2023-09-08T18:57:16.905Z,23.37
2023-09-08T18:59:44.515Z,23.33
2023-09-08T19:02:12.215Z,23.25
2023-09-08T19:04:41.251Z,23.16
2023-09-08T19:07:08.965Z,23.11
2023-09-08T19:09:36.626Z,22.96
2023-09-08T19:12:04.826Z,22.95
2023-09-08T19:14:32.485Z,22.79
2023-09-08T19:17:01.546Z,22.78
2023-09-08T19:19:29.203Z,22.62
2023-09-08T19:21:58.235Z,22.71
2023-09-08T19:24:26.387Z,22.65
2023-09-08T19:26:54.040Z,22.59
2023-09-08T19:29:21.736Z,22.64
2023-09-08T19:31:49.366Z,22.54
2023-09-08T19:34:17.099Z,22.41
2023-09-08T19:36:44.763Z,22.32
2023-09-08T19:39:13.776Z,22.30
2023-09-08T19:41:41.398Z,22.25
2023-09-08T19:44:09.088Z,22.24
2023-09-08T19:46:37.606Z,22.18
2023-09-08T19:49:05.378Z,22.32
2023-09-08T19:51:33.080Z,22.19
2023-09-08T19:54:01.465Z,22.08
2023-09-08T19:56:30.762Z,22.17
2023-09-08T19:58:59.238Z,22.10
2023-09-08T20:01:28.977Z,22.16
2023-09-08T20:03:56.667Z,21.94
2023-09-08T20:06:24.442Z,21.73
2023-09-08T20:08:52.372Z,21.69
2023-09-08T20:11:20.040Z,21.62
2023-09-08T20:13:49.454Z,21.52
2023-09-08T20:16:17.129Z,21.63
2023-09-08T20:18:45.065Z,21.67
2023-09-08T20:21:12.813Z,21.51
2023-09-08T20:23:40.723Z,21.38
2023-09-08T20:26:09.760Z,21.32
2023-09-08T20:28:37.510Z,21.31
2023-09-08T20:31:16.344Z,21.34
2023-09-08T20:33:44.973Z,21.26
2023-09-08T20:36:12.733Z,21.16
2023-09-08T20:38:40.462Z,21.28
2023-09-08T20:41:10.716Z,21.05
2023-09-08T20:43:39.116Z,20.93
2023-09-08T20:46:08.443Z,20.92
2023-09-08T20:48:39.788Z,20.76
2023-09-08T20:51:09.328Z,20.72
2023-09-08T20:53:39.068Z,20.67
2023-09-08T20:56:08.341Z,20.66
2023-09-08T20:58:36.213Z,20.67
2023-09-08T21:01:04.145Z,20.63
2023-09-08T21:03:34.713Z,20.59
2023-09-08T21:06:03.622Z,20.60
2023-09-08T21:08:31.552Z,20.56
2023-09-08T21:10:59.540Z,20.39
2023-09-08T21:13:27.598Z,20.37
2023-09-08T21:15:55.410Z,20.29
2023-09-08T21:18:23.140Z,20.25
2023-09-08T21:20:52.145Z,20.20
2023-09-08T21:23:20.085Z,20.36
2023-09-08T21:25:47.836Z,20.21
2023-09-08T21:28:15.453Z,20.33
2023-09-08T21:30:43.090Z,20.21
2023-09-08T21:33:11.261Z,20.03
2023-09-08T21:35:39.101Z,19.93
2023-09-08T21:38:08.066Z,19.89
2023-09-08T21:40:35.557Z,19.84
2023-09-08T21:43:03.885Z,19.80
2023-09-08T21:45:31.564Z,19.84
2023-09-08T21:47:59.277Z,19.83
2023-09-08T21:50:26.929Z,19.72
2023-09-08T21:52:54.601Z,19.67
2023-09-08T21:55:23.615Z,19.61
2023-09-08T21:57:51.304Z,19.59
2023-09-08T22:00:22.001Z,19.54
2023-09-08T22:02:50.236Z,19.45
2023-09-08T22:05:18.184Z,19.39
2023-09-08T22:07:45.911Z,19.46
2023-09-08T22:10:13.651Z,19.43
2023-09-08T22:12:42.723Z,19.29
2023-09-08T22:15:11.251Z,19.26
2023-09-08T22:17:38.921Z,19.26
2023-09-08T22:20:13.888Z,19.22
2023-09-08T22:22:41.968Z,19.16
2023-09-08T22:25:11.073Z,19.13
2023-09-08T22:27:39.104Z,19.08
2023-09-08T22:30:09.442Z,19.17
2023-09-08T22:32:37.533Z,19.19
2023-09-08T22:35:06.156Z,19.20
2023-09-08T22:37:34.985Z,19.06
2023-09-08T22:40:05.544Z,19.02
2023-09-08T22:42:33.230Z,19.09
2023-09-08T22:45:00.983Z,19.09
2023-09-08T22:47:29.951Z,19.05
2023-09-08T22:49:58.010Z,18.98
2023-09-08T22:52:25.635Z,19.00
2023-09-08T22:54:57.958Z,18.82
2023-09-08T22:57:33.388Z,18.81
2023-09-08T23:00:01.493Z,18.77
2023-09-08T23:02:31.838Z,18.76
2023-09-08T23:05:00.316Z,18.73
2023-09-08T23:07:28.034Z,18.69
2023-09-08T23:09:55.745Z,18.66
2023-09-08T23:12:23.366Z,18.65
2023-09-08T23:14:54.731Z,18.64
2023-09-08T23:17:22.933Z,18.66
2023-09-08T23:19:51.963Z,18.63
2023-09-08T23:22:19.476Z,18.59
2023-09-08T23:24:47.110Z,18.52
2023-09-08T23:27:14.962Z,18.50
2023-09-08T23:29:42.852Z,18.44
2023-09-08T23:32:10.656Z,18.43
2023-09-08T23:34:38.289Z,18.43
2023-09-08T23:37:07.478Z,18.39
2023-09-08T23:39:35.088Z,18.40
2023-09-08T23:42:03.343Z,18.34
2023-09-08T23:44:30.982Z,18.32
2023-09-08T23:46:58.719Z,18.26
2023-09-08T23:49:26.467Z,18.23
2023-09-08T23:51:54.079Z,18.20
2023-09-08T23:54:23.521Z,18.17
2023-09-08T23:56:51.202Z,18.13
2023-09-08T23:59:18.852Z,18.17
